Terminal Aerodrome Forecast
Issued by NWS

Home | Current Version | Previous Version | Text Only | Print | Product List | Glossary On
Versions: 1 2 3 4 5 6 7 8 9 10 11 12 13 14 15 16 17 18 19 20 21 22 23 24
000
FTUS46 KLOX 211100
TAFOXR
TAF
KOXR 211131Z 2112/2212 VRB03KT P6SM SKC
     FM211400 VRB03KT P6SM SCT008
     FM211700 27008KT P6SM SKC
     FM212100 28012KT P6SM SKC
     FM220400 29008KT P6SM SKC
     FM220900 VRB03KT P6SM BKN008=

USA.gov is the U.S. government's official web portal to all federal, state and local government web resources and services.